createdAt,value
2019-04-03T00:01:34.353Z,13.41
2019-04-03T00:04:16.370Z,13.40
2019-04-03T00:10:02.402Z,13.85
2019-04-03T00:12:58.859Z,13.59
2019-04-03T00:15:29.840Z,13.10
2019-04-03T00:20:52.982Z,13.55
2019-04-03T00:23:29.846Z,13.71
2019-04-03T00:26:02.303Z,13.98
2019-04-03T00:38:04.599Z,13.62
2019-04-03T00:41:03.003Z,13.75
2019-04-03T00:46:44.202Z,13.22
2019-04-03T00:49:45.143Z,13.34
2019-04-03T00:54:38.739Z,14.11
2019-04-03T00:57:15.923Z,13.52
2019-04-03T01:02:55.087Z,14.04
2019-04-03T01:08:19.062Z,13.94
2019-04-03T01:16:17.371Z,13.93
2019-04-03T01:19:07.474Z,13.81
2019-04-03T01:30:13.497Z,13.51
2019-04-03T01:32:50.274Z,13.73
2019-04-03T01:38:46.325Z,13.75
2019-04-03T01:41:21.797Z,13.81
2019-04-03T01:46:50.784Z,13.83
2019-04-03T01:49:18.745Z,13.87
2019-04-03T01:52:08.530Z,13.84
2019-04-03T01:54:43.797Z,13.52
2019-04-03T01:57:16.084Z,13.74
2019-04-03T01:59:48.622Z,13.56
2019-04-03T02:02:27.052Z,13.40
2019-04-03T02:05:17.214Z,13.39
2019-04-03T02:07:49.159Z,13.14
2019-04-03T02:10:33.469Z,13.39
2019-04-03T02:16:31.941Z,13.19
2019-04-03T02:22:43.407Z,13.34
2019-04-03T02:24:48.261Z,13.13
2019-04-03T02:30:05.662Z,12.80
2019-04-03T02:55:43.128Z,12.96
2019-04-03T03:01:05.669Z,12.79
2019-04-03T03:03:30.631Z,12.87
2019-04-03T03:06:00.667Z,13.45
2019-04-03T03:08:28.021Z,13.01
2019-04-03T03:10:56.442Z,12.94
2019-04-03T03:13:33.691Z,12.58
2019-04-03T03:16:00.688Z,13.00
2019-04-03T03:18:28.724Z,12.52
2019-04-03T03:23:57.899Z,12.77
2019-04-03T03:26:26.465Z,12.61
2019-04-03T03:28:54.310Z,12.97
2019-04-03T03:31:44.554Z,12.39
2019-04-03T03:33:52.995Z,12.38
2019-04-03T03:36:24.817Z,12.07
2019-04-03T03:38:51.313Z,12.31
2019-04-03T03:41:29.767Z,13.11
2019-04-03T03:43:57.597Z,12.77
2019-04-03T03:46:27.839Z,12.54
2019-04-03T03:48:55.883Z,12.55
2019-04-03T03:51:30.170Z,12.37
2019-04-03T03:53:58.770Z,12.20
2019-04-03T03:56:31.238Z,12.53
2019-04-03T03:58:57.230Z,12.28
2019-04-03T04:01:25.427Z,13.07
2019-04-03T04:03:57.913Z,13.01
2019-04-03T04:06:35.897Z,12.52
2019-04-03T04:09:04.960Z,12.63
2019-04-03T04:11:38.363Z,12.13
2019-04-03T04:14:23.912Z,12.16
2019-04-03T04:16:59.067Z,12.16
2019-04-03T04:19:32.535Z,12.53
2019-04-03T04:22:16.754Z,12.38
2019-04-03T04:24:33.088Z,12.09
2019-04-03T04:27:03.206Z,11.98
2019-04-03T04:29:37.261Z,12.12
2019-04-03T04:32:05.885Z,11.99
2019-04-03T04:34:35.255Z,11.89
2019-04-03T04:37:06.041Z,12.46
2019-04-03T04:39:34.049Z,12.35
2019-04-03T04:42:04.673Z,12.27
2019-04-03T04:44:33.541Z,11.76
2019-04-03T04:47:10.036Z,11.79
2019-04-03T04:49:41.216Z,11.70
2019-04-03T04:52:09.219Z,11.77
2019-04-03T04:54:43.168Z,11.68
2019-04-03T04:57:33.826Z,11.79
2019-04-03T04:59:58.768Z,11.98
2019-04-03T05:02:33.590Z,11.75
2019-04-03T05:05:09.258Z,11.77
2019-04-03T05:07:47.979Z,12.02
2019-04-03T05:10:23.333Z,11.45
2019-04-03T05:15:57.421Z,11.66
2019-04-03T05:18:38.721Z,11.77
2019-04-03T05:28:01.147Z,11.91
2019-04-03T05:29:58.585Z,11.59
2019-04-03T05:35:24.898Z,11.50
2019-04-03T05:40:54.717Z,11.56
2019-04-03T05:43:35.772Z,11.33
2019-04-03T05:46:07.854Z,11.09
2019-04-03T05:48:38.420Z,11.24
2019-04-03T05:51:14.160Z,11.14
2019-04-03T05:59:24.322Z,11.23
2019-04-03T06:02:22.975Z,11.35
2019-04-03T06:14:52.106Z,11.44
2019-04-03T06:23:29.736Z,11.60
2019-04-03T06:26:12.257Z,11.64
2019-04-03T06:31:29.869Z,11.44
2019-04-03T06:37:03.010Z,11.45
2019-04-03T08:23:46.705Z,11.50
2019-04-03T08:33:26.558Z,11.39
2019-04-03T08:36:26.463Z,10.96
2019-04-03T08:58:09.046Z,11.07
2019-04-03T10:16:06.149Z,10.64
2019-04-03T14:10:38.678Z,11.36
2019-04-03T15:13:03.969Z,10.85
2019-04-03T15:47:49.983Z,10.21
2019-04-03T15:53:48.015Z,10.24
2019-04-03T15:56:29.035Z,10.23
2019-04-03T15:59:20.883Z,10.15
2019-04-03T16:18:10.569Z,10.18
2019-04-03T16:23:59.971Z,9.91
2019-04-03T16:27:17.352Z,9.24
2019-04-03T16:30:25.347Z,8.65
2019-04-03T16:36:17.694Z,10.17
2019-04-03T16:39:21.643Z,10.08
2019-04-03T16:42:17.104Z,9.20
2019-04-03T16:44:42.929Z,8.51
2019-04-03T16:47:27.680Z,9.21
2019-04-03T16:50:00.356Z,9.49
2019-04-03T16:53:09.154Z,8.66
2019-04-03T16:56:11.817Z,8.75
2019-04-03T16:59:07.296Z,8.98
2019-04-03T17:01:45.609Z,8.85
2019-04-03T17:04:37.670Z,8.54
2019-04-03T17:07:13.161Z,8.42
2019-04-03T17:09:53.956Z,8.33
2019-04-03T17:15:14.302Z,8.43
2019-04-03T17:17:49.020Z,8.63
2019-04-03T17:20:22.602Z,8.18
2019-04-03T17:22:55.283Z,8.24
2019-04-03T17:25:26.964Z,8.45
2019-04-03T17:27:59.785Z,9.27
2019-04-03T17:30:41.459Z,8.25
2019-04-03T17:33:47.466Z,8.52
2019-04-03T17:42:25.808Z,8.14
2019-04-03T17:45:25.512Z,8.47
2019-04-03T17:50:57.551Z,9.56
2019-04-03T17:57:09.059Z,8.28
2019-04-03T18:00:42.513Z,9.43
2019-04-03T18:04:09.405Z,9.44
2019-04-03T18:07:00.929Z,8.55
2019-04-03T18:12:45.682Z,9.30
2019-04-03T18:15:37.116Z,9.54
2019-04-03T18:18:35.465Z,8.60
2019-04-03T18:23:58.557Z,8.85
2019-04-03T18:26:30.454Z,9.02
2019-04-03T18:38:42.355Z,9.22
2019-04-03T18:41:18.411Z,9.25
2019-04-03T18:44:41.176Z,9.31
2019-04-03T18:53:40.665Z,9.09
2019-04-03T18:56:16.957Z,9.23
2019-04-03T19:02:14.870Z,9.21
2019-04-03T19:50:40.306Z,8.50
2019-04-03T19:56:47.134Z,7.67
2019-04-03T20:19:22.505Z,6.99
2019-04-03T20:39:59.924Z,7.17
2019-04-03T20:55:27.394Z,7.56
2019-04-03T20:58:30.714Z,7.20
2019-04-03T21:01:14.102Z,7.21
2019-04-03T21:11:06.679Z,7.81
2019-04-03T21:23:52.511Z,6.98
2019-04-03T21:24:35.916Z,7.60
2019-04-03T21:26:32.174Z,7.37
2019-04-03T21:29:33.401Z,7.96
2019-04-03T21:54:36.919Z,7.54
2019-04-03T21:57:32.868Z,7.37
2019-04-03T22:19:35.828Z,6.84
2019-04-03T22:22:06.998Z,7.32
2019-04-03T22:24:44.319Z,7.52
2019-04-03T22:27:16.077Z,7.27
2019-04-03T22:29:45.154Z,7.09
2019-04-03T22:32:29.766Z,7.34
2019-04-03T22:35:01.022Z,7.21
2019-04-03T22:40:19.544Z,7.51
2019-04-03T22:43:09.839Z,7.08
2019-04-03T22:45:45.528Z,6.78
2019-04-03T22:48:14.584Z,6.52
2019-04-03T22:50:45.831Z,6.88
2019-04-03T22:53:18.231Z,6.97
2019-04-03T22:56:00.643Z,7.27
2019-04-03T22:58:31.985Z,7.59
2019-04-03T23:01:10.421Z,7.09
2019-04-03T23:03:50.062Z,7.12
2019-04-03T23:09:20.002Z,7.47
2019-04-03T23:11:58.305Z,7.36
2019-04-03T23:14:38.223Z,7.41
2019-04-03T23:17:04.745Z,7.14
2019-04-03T23:19:33.208Z,6.85
2019-04-03T23:24:52.017Z,7.66
2019-04-03T23:27:21.143Z,7.32
2019-04-03T23:29:51.558Z,7.68
2019-04-03T23:32:46.498Z,7.27
2019-04-03T23:35:37.020Z,7.13
2019-04-03T23:38:08.678Z,7.21
2019-04-03T23:40:41.924Z,6.72
2019-04-03T23:43:10.497Z,6.95
2019-04-03T23:45:39.334Z,7.14
2019-04-03T23:48:08.051Z,7.10
2019-04-03T23:53:23.044Z,7.12
2019-04-03T23:55:57.958Z,6.83
2019-04-03T23:58:26.855Z,6.69
